Terminal Aerodrome Forecast
Issued by NWS

Home | Current Version | Previous Version | Text Only | Print | Product List | Glossary On
Versions: 1 2 3 4 5 6 7 8 9 10 11 12 13 14 15
000
FTUS46 KLOX 291100
TAFWJF
TAF
KWJF 291128Z 2912/3012 VRB03KT P6SM SCT120
     FM291800 27008KT P6SM SCT200
     FM292200 25015G25KT P6SM SCT200
     FM300400 25015KT P6SM SCT200
     FM300900 25007KT P6SM SCT200=

USA.gov is the U.S. government's official web portal to all federal, state and local government web resources and services.